createdAt,value
2023-01-29T00:00:05.143Z,97591.69
2023-01-29T00:02:44.151Z,97590.69
2023-01-29T00:05:27.485Z,97587.44
2023-01-29T00:07:59.858Z,97593.78
2023-01-29T00:10:31.473Z,97582.59
2023-01-29T00:13:03.028Z,97592.81
2023-01-29T00:15:34.720Z,97592.53
2023-01-29T00:18:06.285Z,97588.19
2023-01-29T00:20:37.846Z,97587.59
2023-01-29T00:23:09.577Z,97580.19
2023-01-29T00:25:42.543Z,97577.53
2023-01-29T00:28:15.405Z,97582.06
2023-01-29T00:30:47.043Z,97582.16
2023-01-29T00:33:18.604Z,97578.53
2023-01-29T00:35:50.795Z,97577.19
2023-01-29T00:38:22.387Z,97585.00
2023-01-29T00:40:54.449Z,97581.31
2023-01-29T00:43:26.317Z,97575.59
2023-01-29T00:45:57.900Z,97564.13
2023-01-29T00:48:29.609Z,97581.91
2023-01-29T00:51:03.039Z,97582.50
2023-01-29T00:53:34.602Z,97580.84
2023-01-29T00:56:06.754Z,97590.44
2023-01-29T00:58:38.342Z,97585.28
2023-01-29T01:01:09.962Z,97584.22
2023-01-29T01:03:41.558Z,97586.50
2023-01-29T01:06:13.144Z,97591.75
2023-01-29T01:08:46.588Z,97591.94
2023-01-29T01:11:18.672Z,97593.16
2023-01-29T01:13:50.294Z,97593.66
2023-01-29T01:16:24.517Z,97603.59
2023-01-29T01:18:56.751Z,97601.50
2023-01-29T01:21:28.319Z,97595.13
2023-01-29T01:23:59.904Z,97595.97
2023-01-29T01:26:33.079Z,97605.50
2023-01-29T01:29:05.002Z,97609.59
2023-01-29T01:31:36.693Z,97603.25
2023-01-29T01:34:08.245Z,97618.06
2023-01-29T01:36:39.822Z,97619.56
2023-01-29T01:39:11.502Z,97622.28
2023-01-29T01:41:43.028Z,97618.59
2023-01-29T01:44:51.673Z,97616.66
2023-01-29T01:47:30.612Z,97621.56
2023-01-29T01:50:13.759Z,97629.38
2023-01-29T01:52:51.232Z,97634.22
2023-01-29T01:55:28.087Z,97622.81
2023-01-29T01:58:14.672Z,97631.84
2023-01-29T02:00:46.470Z,97635.25
2023-01-29T02:03:21.666Z,97635.78
2023-01-29T02:05:57.735Z,97632.53
2023-01-29T02:08:43.885Z,97631.34
2023-01-29T02:11:16.799Z,97640.28
2023-01-29T02:13:48.694Z,97640.84
2023-01-29T02:16:22.618Z,97648.53
2023-01-29T02:18:54.498Z,97663.53
2023-01-29T02:21:26.058Z,97644.44
2023-01-29T02:24:17.742Z,97648.19
2023-01-29T02:27:14.385Z,97663.31
2023-01-29T02:30:16.537Z,97668.19
2023-01-29T02:33:02.262Z,97672.94
2023-01-29T02:36:18.036Z,97677.53
2023-01-29T02:39:02.710Z,97686.22
2023-01-29T02:41:46.082Z,97688.78
2023-01-29T02:44:38.540Z,97685.97
2023-01-29T02:47:40.088Z,97690.81
2023-01-29T02:50:46.906Z,97690.13
2023-01-29T02:53:44.626Z,97689.84
2023-01-29T02:56:28.795Z,97692.06
2023-01-29T02:59:08.583Z,97691.44
2023-01-29T03:01:56.863Z,97689.81
2023-01-29T03:04:36.126Z,97698.69
2023-01-29T03:07:13.773Z,97695.72
2023-01-29T03:09:53.356Z,97689.28
2023-01-29T03:12:31.050Z,97693.47
2023-01-29T03:15:17.998Z,97695.25
2023-01-29T03:18:24.918Z,97702.66
2023-01-29T03:21:07.655Z,97698.63
2023-01-29T03:23:39.388Z,97696.59
2023-01-29T03:26:18.557Z,97693.88
2023-01-29T03:28:52.461Z,97690.81
2023-01-29T03:31:27.222Z,97698.78
2023-01-29T03:34:11.031Z,97690.88
2023-01-29T03:37:01.612Z,97686.63
2023-01-29T03:39:34.261Z,97691.94
2023-01-29T03:42:29.254Z,97695.25
2023-01-29T03:45:21.667Z,97689.50
2023-01-29T03:48:00.366Z,97689.50
2023-01-29T03:51:11.334Z,97688.50
2023-01-29T03:54:15.023Z,97695.31
2023-01-29T03:56:49.658Z,97689.22
2023-01-29T03:59:33.035Z,97696.78
2023-01-29T04:02:26.880Z,97696.78
2023-01-29T04:05:09.795Z,97695.91
2023-01-29T04:08:01.559Z,97693.16
2023-01-29T04:10:37.978Z,97680.56
2023-01-29T04:13:15.932Z,97677.38
2023-01-29T04:15:56.356Z,97685.97
2023-01-29T04:18:48.200Z,97682.22
2023-01-29T04:21:21.560Z,97686.84
2023-01-29T04:23:53.370Z,97684.97
2023-01-29T04:26:46.339Z,97680.31
2023-01-29T04:29:57.440Z,97684.22
2023-01-29T04:32:51.993Z,97683.84
2023-01-29T04:36:02.793Z,97685.53
2023-01-29T04:38:40.638Z,97681.09
2023-01-29T04:41:24.450Z,97687.47
2023-01-29T04:43:55.957Z,97674.97
2023-01-29T04:46:48.843Z,97677.34
2023-01-29T04:49:53.443Z,97681.97
2023-01-29T04:52:31.183Z,97686.22
2023-01-29T04:55:16.265Z,97682.03
2023-01-29T04:58:22.270Z,97679.63
2023-01-29T05:00:54.886Z,97679.44
2023-01-29T05:03:30.076Z,97679.31
2023-01-29T05:06:02.965Z,97682.88
2023-01-29T05:08:39.110Z,97684.09
2023-01-29T05:11:11.598Z,97685.75
2023-01-29T05:13:43.559Z,97686.81
2023-01-29T05:16:26.534Z,97693.59
2023-01-29T05:18:58.513Z,97690.31
2023-01-29T05:21:30.071Z,97691.41
2023-01-29T05:24:25.625Z,97689.50
2023-01-29T05:26:57.338Z,97698.28
2023-01-29T05:29:29.170Z,97699.91
2023-01-29T05:32:00.859Z,97708.09
2023-01-29T05:34:32.449Z,97708.09
2023-01-29T05:37:04.138Z,97709.72
2023-01-29T05:39:35.772Z,97712.38
2023-01-29T05:42:07.442Z,97714.03
2023-01-29T05:44:39.043Z,97720.41
2023-01-29T05:47:10.604Z,97730.06
2023-01-29T05:49:42.384Z,97735.16
2023-01-29T05:52:14.041Z,97742.59
2023-01-29T05:54:45.937Z,97744.22
2023-01-29T05:57:17.574Z,97750.78
2023-01-29T05:59:49.124Z,97755.91
2023-01-29T06:02:20.785Z,97758.56
2023-01-29T06:04:52.370Z,97755.72
2023-01-29T06:07:24.014Z,97765.22
2023-01-29T06:09:55.536Z,97758.41
2023-01-29T06:12:28.137Z,97767.78
2023-01-29T06:14:59.718Z,97764.72
2023-01-29T06:17:31.339Z,97773.72
2023-01-29T06:20:03.220Z,97776.50
2023-01-29T06:22:34.868Z,97780.53
2023-01-29T06:25:07.316Z,97789.66
2023-01-29T06:27:38.908Z,97791.16
2023-01-29T06:30:11.167Z,97782.69
2023-01-29T06:32:42.770Z,97793.63
2023-01-29T06:35:14.427Z,97801.75
2023-01-29T06:37:45.984Z,97798.66
2023-01-29T06:40:17.989Z,97816.03
2023-01-29T06:42:49.870Z,97815.69
2023-01-29T06:45:21.495Z,97819.34
2023-01-29T06:47:53.214Z,97815.81
2023-01-29T06:50:24.808Z,97825.78
2023-01-29T06:52:56.413Z,97822.97
2023-01-29T06:55:28.010Z,97826.31
2023-01-29T06:57:59.572Z,97830.59
2023-01-29T07:00:31.637Z,97826.56
2023-01-29T07:03:04.432Z,97824.78
2023-01-29T07:05:36.074Z,97829.69
2023-01-29T07:08:07.756Z,97835.81
2023-01-29T07:10:39.318Z,97842.78
2023-01-29T07:13:10.915Z,97841.50
2023-01-29T07:15:42.808Z,97854.88
2023-01-29T07:18:14.414Z,97847.66
2023-01-29T07:20:45.995Z,97843.72
2023-01-29T07:23:17.650Z,97848.84
2023-01-29T07:25:49.932Z,97843.81
2023-01-29T07:28:21.525Z,97845.03
2023-01-29T07:31:02.000Z,97844.50
2023-01-29T07:33:34.650Z,97838.97
2023-01-29T07:36:10.215Z,97839.00
2023-01-29T07:38:41.895Z,97827.53
2023-01-29T07:41:13.476Z,97830.81
2023-01-29T07:43:48.475Z,97825.56
2023-01-29T07:46:20.037Z,97825.44
2023-01-29T07:48:51.660Z,97828.50
2023-01-29T07:51:23.263Z,97823.88
2023-01-29T07:53:54.871Z,97827.34
2023-01-29T07:56:26.404Z,97826.22
2023-01-29T07:58:57.960Z,97829.97
2023-01-29T08:01:29.618Z,97831.81
2023-01-29T08:04:01.333Z,97820.56
2023-01-29T08:06:33.009Z,97812.97
2023-01-29T08:09:04.633Z,97813.19
2023-01-29T08:11:36.360Z,97821.91
2023-01-29T08:14:08.067Z,97833.94
2023-01-29T08:16:39.782Z,97831.63
2023-01-29T08:19:11.409Z,97832.81
2023-01-29T08:21:43.676Z,97828.19
2023-01-29T08:24:15.521Z,97821.88
2023-01-29T08:26:47.236Z,97834.06
2023-01-29T08:29:18.920Z,97830.06
2023-01-29T08:31:50.638Z,97833.13
2023-01-29T08:34:22.298Z,97841.03
2023-01-29T08:36:53.904Z,97834.00
2023-01-29T08:39:25.611Z,97828.84
2023-01-29T08:41:57.233Z,97839.44
2023-01-29T08:44:28.821Z,97844.06
2023-01-29T08:47:01.171Z,97845.59
2023-01-29T08:49:32.829Z,97850.94
2023-01-29T08:52:04.669Z,97846.78
2023-01-29T08:54:36.329Z,97846.81
2023-01-29T08:57:08.046Z,97848.56
2023-01-29T08:59:39.652Z,97852.16
2023-01-29T09:02:11.692Z,97856.69
2023-01-29T09:04:43.370Z,97853.03
2023-01-29T09:07:15.056Z,97855.97
2023-01-29T09:09:46.641Z,97848.69
2023-01-29T09:12:18.224Z,97849.06
2023-01-29T09:14:49.820Z,97844.88
2023-01-29T09:17:21.749Z,97855.00
2023-01-29T09:19:53.416Z,97855.38
2023-01-29T09:22:25.044Z,97858.41
2023-01-29T09:24:56.647Z,97854.91
2023-01-29T09:27:28.613Z,97861.47
2023-01-29T09:30:00.355Z,97864.44
2023-01-29T09:35:25.432Z,97867.53
2023-01-29T09:37:57.153Z,97870.66
2023-01-29T09:40:33.490Z,97870.56
2023-01-29T09:43:11.937Z,97880.97
2023-01-29T09:45:59.860Z,97881.91
2023-01-29T09:48:36.337Z,97880.53
2023-01-29T09:51:29.151Z,97889.09
2023-01-29T09:54:35.943Z,97888.00
2023-01-29T09:57:18.700Z,97897.19
2023-01-29T09:59:50.449Z,97899.94
2023-01-29T10:05:52.126Z,97907.81
2023-01-29T10:08:42.416Z,97910.59
2023-01-29T10:11:47.737Z,97921.16
2023-01-29T10:14:52.980Z,97918.72
2023-01-29T10:17:56.517Z,97920.44
2023-01-29T10:20:43.173Z,97917.34
2023-01-29T10:23:34.498Z,97919.91
2023-01-29T10:26:12.916Z,97921.25
2023-01-29T10:28:49.201Z,97923.97
2023-01-29T10:31:29.286Z,97919.59
2023-01-29T10:34:05.163Z,97917.41
2023-01-29T10:36:49.015Z,97919.16
2023-01-29T10:39:24.231Z,97929.59
2023-01-29T10:42:18.469Z,97916.47
2023-01-29T10:45:04.979Z,97910.47
2023-01-29T10:47:45.701Z,97911.56
2023-01-29T10:50:52.085Z,97921.31
2023-01-29T10:53:29.587Z,97919.00
2023-01-29T10:56:37.373Z,97911.59
2023-01-29T10:59:28.063Z,97914.47
2023-01-29T11:02:00.137Z,97918.22
2023-01-29T11:04:34.274Z,97910.00
2023-01-29T11:07:06.008Z,97914.25
2023-01-29T11:09:45.854Z,97912.56
2023-01-29T11:12:24.067Z,97905.59
2023-01-29T11:15:01.145Z,97908.31
2023-01-29T11:17:32.931Z,97905.13
2023-01-29T11:20:25.078Z,97900.13
2023-01-29T11:22:56.670Z,97905.81
2023-01-29T11:25:29.615Z,97908.19
2023-01-29T11:28:02.668Z,97909.84
2023-01-29T11:30:38.914Z,97910.13
2023-01-29T11:33:24.313Z,97904.94
2023-01-29T11:35:56.000Z,97904.88
2023-01-29T11:38:29.374Z,97904.22
2023-01-29T11:41:15.767Z,97897.41
2023-01-29T11:43:47.345Z,97897.34
2023-01-29T11:46:19.080Z,97899.31
2023-01-29T11:48:53.561Z,97887.03
2023-01-29T11:51:29.130Z,97886.72
2023-01-29T11:54:05.054Z,97882.94
2023-01-29T11:56:46.819Z,97880.94
2023-01-29T11:59:52.175Z,97888.53
2023-01-29T12:02:30.802Z,97887.13
2023-01-29T12:05:14.290Z,97881.84
2023-01-29T12:07:49.641Z,97882.56
2023-01-29T12:10:39.751Z,97876.34
2023-01-29T12:13:11.379Z,97871.78
2023-01-29T12:15:43.167Z,97871.78
2023-01-29T12:18:36.668Z,97866.63
2023-01-29T12:21:57.350Z,97864.09
2023-01-29T12:24:49.377Z,97860.38
2023-01-29T12:27:46.406Z,97855.81
2023-01-29T12:30:27.035Z,97846.06
2023-01-29T12:33:16.538Z,97848.59
2023-01-29T12:36:00.685Z,97842.09
2023-01-29T12:38:32.573Z,97846.22
2023-01-29T12:41:07.519Z,97838.34
2023-01-29T12:43:46.993Z,97842.75
2023-01-29T12:46:35.453Z,97834.91
2023-01-29T12:49:16.300Z,97836.16
2023-01-29T12:52:13.161Z,97836.75
2023-01-29T12:55:22.176Z,97826.03
2023-01-29T12:58:04.275Z,97822.72
2023-01-29T13:00:40.467Z,97818.34
2023-01-29T13:03:24.412Z,97827.63
2023-01-29T13:06:06.820Z,97821.78
2023-01-29T13:08:45.231Z,97824.66
2023-01-29T13:11:28.783Z,97820.63
2023-01-29T13:14:18.946Z,97816.25
2023-01-29T13:17:14.013Z,97815.47
2023-01-29T13:19:51.436Z,97823.41
2023-01-29T13:22:31.999Z,97816.38
2023-01-29T13:25:05.775Z,97821.78
2023-01-29T13:27:39.044Z,97820.25
2023-01-29T13:30:30.528Z,97827.22
2023-01-29T13:35:45.934Z,97822.19
2023-01-29T13:38:24.273Z,97826.38
2023-01-29T13:41:02.742Z,97823.91
2023-01-29T13:43:39.844Z,97822.00
2023-01-29T13:46:17.020Z,97821.50
2023-01-29T13:48:52.200Z,97822.56
2023-01-29T13:51:34.783Z,97821.91
2023-01-29T13:54:18.012Z,97828.97
2023-01-29T13:56:55.469Z,97826.66
2023-01-29T13:59:51.418Z,97826.34
2023-01-29T14:02:29.912Z,97828.47
2023-01-29T14:05:29.574Z,97824.31
2023-01-29T14:08:02.102Z,97825.75
2023-01-29T14:10:35.935Z,97826.28
2023-01-29T14:13:16.580Z,97825.47
2023-01-29T14:15:57.379Z,97828.25
2023-01-29T14:18:31.677Z,97830.72
2023-01-29T14:21:28.417Z,97829.66
2023-01-29T14:24:21.079Z,97832.94
2023-01-29T14:26:56.371Z,97826.75
2023-01-29T14:29:34.978Z,97833.50
2023-01-29T14:32:06.859Z,97834.44
2023-01-29T14:34:51.054Z,97842.41
2023-01-29T14:37:35.747Z,97840.31
2023-01-29T14:40:24.931Z,97840.31
2023-01-29T14:43:03.078Z,97847.44
2023-01-29T14:45:39.618Z,97842.97
2023-01-29T14:48:11.138Z,97842.84
2023-01-29T14:50:48.139Z,97839.28
2023-01-29T14:53:48.331Z,97839.16
2023-01-29T14:56:44.056Z,97834.22
2023-01-29T14:59:36.329Z,97838.78
2023-01-29T15:02:23.865Z,97836.47
2023-01-29T15:05:00.566Z,97833.31
2023-01-29T15:07:36.989Z,97834.94
2023-01-29T15:10:22.352Z,97839.75
2023-01-29T15:13:13.367Z,97837.44
2023-01-29T15:15:52.946Z,97836.41
2023-01-29T15:18:39.138Z,97832.72
2023-01-29T15:21:19.209Z,97830.31
2023-01-29T15:24:05.592Z,97827.88
2023-01-29T15:26:37.472Z,97818.78
2023-01-29T15:29:24.712Z,97814.88
2023-01-29T15:31:58.189Z,97813.63
2023-01-29T15:34:29.971Z,97808.72
2023-01-29T15:37:01.733Z,97811.53
2023-01-29T15:39:43.653Z,97815.66
2023-01-29T15:42:15.299Z,97808.31
2023-01-29T15:44:47.012Z,97812.34
2023-01-29T15:47:20.067Z,97815.91
2023-01-29T15:49:52.696Z,97816.50
2023-01-29T15:52:30.441Z,97818.34
2023-01-29T15:55:06.809Z,97818.34
2023-01-29T15:57:41.678Z,97824.88
2023-01-29T16:00:28.824Z,97820.75
2023-01-29T16:03:00.501Z,97819.16
2023-01-29T16:05:32.503Z,97823.63
2023-01-29T16:08:05.951Z,97825.81
2023-01-29T16:10:37.829Z,97824.56
2023-01-29T16:13:31.281Z,97827.34
2023-01-29T16:16:05.318Z,97826.03
2023-01-29T16:18:41.017Z,97828.34
2023-01-29T16:21:31.814Z,97830.28
2023-01-29T16:24:16.181Z,97834.47
2023-01-29T16:26:51.400Z,97825.47
2023-01-29T16:29:31.348Z,97824.47
2023-01-29T16:32:03.899Z,97835.03
2023-01-29T16:34:40.018Z,97827.09
2023-01-29T16:37:26.571Z,97823.38
2023-01-29T16:39:58.545Z,97821.78
2023-01-29T16:42:31.549Z,97826.72
2023-01-29T16:45:05.912Z,97835.56
2023-01-29T16:47:40.402Z,97835.84
2023-01-29T16:50:40.531Z,97838.16
2023-01-29T16:53:19.451Z,97836.69
2023-01-29T16:55:52.728Z,97841.66
2023-01-29T16:58:27.983Z,97841.06
2023-01-29T17:01:02.077Z,97842.31
2023-01-29T17:03:35.620Z,97843.88
2023-01-29T17:06:21.377Z,97848.94
2023-01-29T17:08:55.340Z,97848.25
2023-01-29T17:11:38.325Z,97843.78
2023-01-29T17:14:19.250Z,97842.13
2023-01-29T17:16:55.429Z,97841.69
2023-01-29T17:19:27.356Z,97838.66
2023-01-29T17:21:59.659Z,97846.88
2023-01-29T17:24:31.443Z,97841.53
2023-01-29T17:27:03.395Z,97852.16
2023-01-29T17:29:35.191Z,97854.28
2023-01-29T17:32:06.796Z,97867.41
2023-01-29T17:34:38.678Z,97862.94
2023-01-29T17:37:14.535Z,97862.06
2023-01-29T17:39:50.659Z,97863.47
2023-01-29T17:42:22.283Z,97862.13
2023-01-29T17:45:22.952Z,97868.56
2023-01-29T17:48:26.651Z,97867.22
2023-01-29T17:51:04.255Z,97876.06
2023-01-29T17:53:45.385Z,97873.22
2023-01-29T17:56:25.755Z,97867.72
2023-01-29T17:59:16.555Z,97867.88
2023-01-29T18:01:51.580Z,97876.41
2023-01-29T18:04:23.417Z,97874.53
2023-01-29T18:06:57.641Z,97875.97
2023-01-29T18:09:29.197Z,97878.34
2023-01-29T18:12:00.855Z,97877.53
2023-01-29T18:14:32.393Z,97878.06
2023-01-29T18:17:04.022Z,97885.47
2023-01-29T18:19:35.613Z,97881.50
2023-01-29T18:22:07.267Z,97879.16
2023-01-29T18:24:38.808Z,97881.03
2023-01-29T18:27:11.483Z,97879.97
2023-01-29T18:29:43.633Z,97872.13
2023-01-29T18:32:15.427Z,97870.34
2023-01-29T18:34:50.103Z,97876.06
2023-01-29T18:37:21.907Z,97866.81
2023-01-29T18:39:53.580Z,97867.91
2023-01-29T18:42:25.397Z,97875.13
2023-01-29T18:44:57.149Z,97873.56
2023-01-29T18:47:28.778Z,97869.13
2023-01-29T18:50:00.427Z,97871.22
2023-01-29T18:52:32.398Z,97865.09
2023-01-29T18:55:04.517Z,97872.06
2023-01-29T18:58:26.268Z,97863.38
2023-01-29T19:00:28.011Z,97868.50
2023-01-29T19:02:59.682Z,97870.47
2023-01-29T19:05:33.620Z,97869.69
2023-01-29T19:08:05.843Z,97862.00
2023-01-29T19:10:37.886Z,97867.28
2023-01-29T19:13:09.549Z,97869.13
2023-01-29T19:15:42.314Z,97863.94
2023-01-29T19:18:14.841Z,97860.59
2023-01-29T19:20:46.708Z,97861.16
2023-01-29T19:23:18.745Z,97858.50
2023-01-29T19:25:50.321Z,97868.41
2023-01-29T19:28:21.972Z,97864.38
2023-01-29T19:30:57.135Z,97869.25
2023-01-29T19:33:29.304Z,97870.88
2023-01-29T19:36:01.723Z,97880.28
2023-01-29T19:38:33.519Z,97879.44
2023-01-29T19:41:05.989Z,97884.75
2023-01-29T19:43:37.543Z,97890.84
2023-01-29T19:46:09.900Z,97886.59
2023-01-29T19:48:41.813Z,97898.50
2023-01-29T19:51:14.482Z,97896.50
2023-01-29T19:53:46.140Z,97896.72
2023-01-29T19:56:18.854Z,97899.34
2023-01-29T19:58:51.008Z,97898.91
2023-01-29T20:01:23.689Z,97897.31
2023-01-29T20:03:56.657Z,97901.56
2023-01-29T20:06:29.696Z,97906.41
2023-01-29T20:09:07.345Z,97900.16
2023-01-29T20:11:39.259Z,97908.25
2023-01-29T20:14:10.910Z,97906.59
2023-01-29T20:16:42.719Z,97911.25
2023-01-29T20:19:15.194Z,97914.69
2023-01-29T20:21:47.560Z,97911.66
2023-01-29T20:24:19.301Z,97904.59
2023-01-29T20:26:51.017Z,97915.31
2023-01-29T20:29:22.709Z,97916.06
2023-01-29T20:31:54.405Z,97913.09
2023-01-29T20:34:26.324Z,97924.75
2023-01-29T20:36:57.994Z,97923.94
2023-01-29T20:39:29.755Z,97921.97
2023-01-29T20:42:01.488Z,97927.63
2023-01-29T20:44:33.121Z,97929.84
2023-01-29T20:47:04.748Z,97931.06
2023-01-29T20:49:36.926Z,97930.06
2023-01-29T20:52:08.546Z,97931.47
2023-01-29T20:54:40.227Z,97934.09
2023-01-29T20:57:11.998Z,97934.69
2023-01-29T20:59:43.712Z,97938.75
2023-01-29T21:02:15.443Z,97947.25
2023-01-29T21:04:47.193Z,97944.00
2023-01-29T21:07:19.100Z,97948.44
2023-01-29T21:09:50.688Z,97943.00
2023-01-29T21:12:22.265Z,97942.78
2023-01-29T21:14:53.882Z,97952.31
2023-01-29T21:17:27.879Z,97946.66
2023-01-29T21:19:59.765Z,97944.00
2023-01-29T21:22:31.897Z,97941.38
2023-01-29T21:25:03.638Z,97943.59
2023-01-29T21:27:35.278Z,97944.00
2023-01-29T21:30:07.844Z,97938.56
2023-01-29T21:32:40.585Z,97941.38
2023-01-29T21:35:12.494Z,97939.56
2023-01-29T21:37:44.104Z,97938.75
2023-01-29T21:40:16.272Z,97940.78
2023-01-29T21:42:48.199Z,97941.38
2023-01-29T21:45:20.499Z,97939.56
2023-01-29T21:47:52.135Z,97935.72
2023-01-29T21:50:23.763Z,97935.94
2023-01-29T21:52:55.492Z,97931.47
2023-01-29T21:55:27.356Z,97928.84
2023-01-29T21:57:59.849Z,97922.38
2023-01-29T22:00:31.526Z,97919.53
2023-01-29T22:03:03.172Z,97927.84
2023-01-29T22:05:34.846Z,97923.41
2023-01-29T22:08:06.490Z,97922.56
2023-01-29T22:10:38.241Z,97918.56
2023-01-29T22:13:09.796Z,97921.97
2023-01-29T22:15:41.361Z,97914.50
2023-01-29T22:18:13.038Z,97916.91
2023-01-29T22:20:44.681Z,97912.47
2023-01-29T22:23:16.264Z,97914.91
2023-01-29T22:25:47.903Z,97917.94
2023-01-29T22:28:19.518Z,97913.28
2023-01-29T22:30:51.202Z,97914.09
2023-01-29T22:33:22.836Z,97914.09
2023-01-29T22:35:54.929Z,97914.91
2023-01-29T22:38:26.811Z,97908.41
2023-01-29T22:41:00.425Z,97901.34
2023-01-29T22:43:32.059Z,97902.78
2023-01-29T22:46:08.137Z,97904.38
2023-01-29T22:48:39.926Z,97890.00
2023-01-29T22:51:11.867Z,97888.81
2023-01-29T22:53:49.920Z,97885.97
2023-01-29T22:56:24.543Z,97875.66
2023-01-29T22:58:58.864Z,97867.97
2023-01-29T23:01:31.997Z,97866.56
2023-01-29T23:04:03.692Z,97865.38
2023-01-29T23:06:35.398Z,97866.34
2023-01-29T23:09:07.090Z,97859.91
2023-01-29T23:11:38.780Z,97852.66
2023-01-29T23:14:10.407Z,97851.22
2023-01-29T23:16:42.037Z,97851.59
2023-01-29T23:19:13.775Z,97844.53
2023-01-29T23:21:45.369Z,97850.19
2023-01-29T23:24:17.241Z,97836.78
2023-01-29T23:26:48.931Z,97838.09
2023-01-29T23:29:20.984Z,97843.06
2023-01-29T23:31:52.642Z,97839.41
2023-01-29T23:34:24.271Z,97836.34
2023-01-29T23:36:56.161Z,97838.53
2023-01-29T23:39:27.745Z,97836.69
2023-01-29T23:41:59.605Z,97835.84
2023-01-29T23:44:31.259Z,97831.97
2023-01-29T23:47:02.936Z,97830.34
2023-01-29T23:49:35.275Z,97827.88
2023-01-29T23:52:06.875Z,97826.13
2023-01-29T23:54:38.554Z,97833.50
2023-01-29T23:57:10.188Z,97830.50
2023-01-29T23:59:41.984Z,97821.88
